Pine Hall, North Carolina
Current Conditions -  °F | °C
As of 11:15 AM on Friday 24 Oct 2014 (Local Time) from KSIF Reporting Station
Clear Clear  
Wind Chill: 61°   Ceiling: Unl
Heat Index: 61°   Visibility: 10mi
Dew Point: 44°   Wind: 5mph
Humidity: 53%   Direction: 350°N
Pressure: 30.07"   Gusts: NA
Location:  36.32°N, 80.05°W
Report Text: KSIF 241515Z AUTO 35004KT 10SM CLR 16/07 A3007 RMK AO2 T01620065
Loading
Personal Weather Stations






























Interactive Weather Map
Tropical Storm Tracking
New forecast layout! Learn more

10-Day Weather Forecast

Advertisements
Track Severe Weather on mobile